sensor_id;sensor_type;location;lat;lon;timestamp;temperature;humidity
51327;DHT22;37412;52.836;6.362;2023-06-14T00:00:38;17.60;72.80
51327;DHT22;37412;52.836;6.362;2023-06-14T00:03:28;17.60;73.20
51327;DHT22;37412;52.836;6.362;2023-06-14T00:06:14;17.50;73.50
51327;DHT22;37412;52.836;6.362;2023-06-14T00:09:00;17.40;73.00
51327;DHT22;37412;52.836;6.362;2023-06-14T00:11:46;17.40;73.70
51327;DHT22;37412;52.836;6.362;2023-06-14T00:14:32;17.30;74.50
51327;DHT22;37412;52.836;6.362;2023-06-14T00:17:18;17.20;73.70
51327;DHT22;37412;52.836;6.362;2023-06-14T00:20:05;17.20;74.00
51327;DHT22;37412;52.836;6.362;2023-06-14T00:22:52;17.20;73.80
51327;DHT22;37412;52.836;6.362;2023-06-14T00:25:39;17.10;74.10
51327;DHT22;37412;52.836;6.362;2023-06-14T00:28:25;17.20;74.60
51327;DHT22;37412;52.836;6.362;2023-06-14T00:31:14;17.00;74.50
51327;DHT22;37412;52.836;6.362;2023-06-14T00:34:00;16.90;74.50
51327;DHT22;37412;52.836;6.362;2023-06-14T00:36:49;16.90;74.60
51327;DHT22;37412;52.836;6.362;2023-06-14T00:39:35;16.90;74.80
51327;DHT22;37412;52.836;6.362;2023-06-14T00:42:25;16.80;75.20
51327;DHT22;37412;52.836;6.362;2023-06-14T00:45:15;16.80;74.80
51327;DHT22;37412;52.836;6.362;2023-06-14T00:48:02;16.80;75.30
51327;DHT22;37412;52.836;6.362;2023-06-14T00:50:49;16.80;76.00
51327;DHT22;37412;52.836;6.362;2023-06-14T00:53:36;16.70;75.50
51327;DHT22;37412;52.836;6.362;2023-06-14T00:56:22;16.70;75.80
51327;DHT22;37412;52.836;6.362;2023-06-14T00:59:09;16.70;75.30
51327;DHT22;37412;52.836;6.362;2023-06-14T01:01:57;16.60;76.20
51327;DHT22;37412;52.836;6.362;2023-06-14T01:04:45;16.50;75.80
51327;DHT22;37412;52.836;6.362;2023-06-14T01:07:37;16.50;75.90
51327;DHT22;37412;52.836;6.362;2023-06-14T01:10:35;16.40;75.90
51327;DHT22;37412;52.836;6.362;2023-06-14T01:13:28;16.50;76.70
51327;DHT22;37412;52.836;6.362;2023-06-14T01:16:17;16.40;76.80
51327;DHT22;37412;52.836;6.362;2023-06-14T01:19:03;16.30;76.80
51327;DHT22;37412;52.836;6.362;2023-06-14T01:21:50;16.30;77.40
51327;DHT22;37412;52.836;6.362;2023-06-14T01:24:36;16.20;77.30
51327;DHT22;37412;52.836;6.362;2023-06-14T01:27:26;16.20;77.20
51327;DHT22;37412;52.836;6.362;2023-06-14T01:30:14;16.20;77.70
51327;DHT22;37412;52.836;6.362;2023-06-14T01:33:01;16.20;78.30
51327;DHT22;37412;52.836;6.362;2023-06-14T01:35:49;16.20;77.70
51327;DHT22;37412;52.836;6.362;2023-06-14T01:38:36;16.10;78.50
51327;DHT22;37412;52.836;6.362;2023-06-14T01:41:23;16.10;78.30
51327;DHT22;37412;52.836;6.362;2023-06-14T01:44:10;16.10;78.50
51327;DHT22;37412;52.836;6.362;2023-06-14T01:47:01;16.00;78.60
51327;DHT22;37412;52.836;6.362;2023-06-14T01:49:47;15.90;78.80
51327;DHT22;37412;52.836;6.362;2023-06-14T01:52:37;15.90;78.80
51327;DHT22;37412;52.836;6.362;2023-06-14T01:55:23;15.90;79.30
51327;DHT22;37412;52.836;6.362;2023-06-14T01:58:12;15.80;79.30
51327;DHT22;37412;52.836;6.362;2023-06-14T02:00:59;15.80;79.40
51327;DHT22;37412;52.836;6.362;2023-06-14T02:03:46;15.80;80.10
51327;DHT22;37412;52.836;6.362;2023-06-14T02:06:32;15.70;79.80
51327;DHT22;37412;52.836;6.362;2023-06-14T02:09:20;15.70;80.00
51327;DHT22;37412;52.836;6.362;2023-06-14T02:12:06;15.60;80.30
51327;DHT22;37412;52.836;6.362;2023-06-14T02:14:52;15.60;80.60
51327;DHT22;37412;52.836;6.362;2023-06-14T02:17:38;15.60;80.50
51327;DHT22;37412;52.836;6.362;2023-06-14T02:20:27;15.50;80.70
51327;DHT22;37412;52.836;6.362;2023-06-14T02:23:13;15.50;81.00
51327;DHT22;37412;52.836;6.362;2023-06-14T02:25:59;15.40;81.30
51327;DHT22;37412;52.836;6.362;2023-06-14T02:28:45;15.40;81.20
51327;DHT22;37412;52.836;6.362;2023-06-14T02:31:31;15.40;81.80
51327;DHT22;37412;52.836;6.362;2023-06-14T02:34:17;15.40;81.60
51327;DHT22;37412;52.836;6.362;2023-06-14T02:37:05;15.40;82.00
51327;DHT22;37412;52.836;6.362;2023-06-14T02:39:51;15.30;81.80
51327;DHT22;37412;52.836;6.362;2023-06-14T02:42:37;15.30;82.10
51327;DHT22;37412;52.836;6.362;2023-06-14T02:45:23;15.20;82.20
51327;DHT22;37412;52.836;6.362;2023-06-14T02:48:09;15.10;82.50
51327;DHT22;37412;52.836;6.362;2023-06-14T02:50:55;15.20;82.60
51327;DHT22;37412;52.836;6.362;2023-06-14T02:53:46;15.20;82.50
51327;DHT22;37412;52.836;6.362;2023-06-14T02:56:32;15.10;82.70
51327;DHT22;37412;52.836;6.362;2023-06-14T02:59:18;15.10;83.00
51327;DHT22;37412;52.836;6.362;2023-06-14T03:02:05;15.00;83.20
51327;DHT22;37412;52.836;6.362;2023-06-14T03:04:51;15.00;83.70
51327;DHT22;37412;52.836;6.362;2023-06-14T03:07:37;15.00;83.50
51327;DHT22;37412;52.836;6.362;2023-06-14T03:10:26;15.00;83.80
51327;DHT22;37412;52.836;6.362;2023-06-14T03:13:15;15.00;84.00
51327;DHT22;37412;52.836;6.362;2023-06-14T03:16:01;14.90;84.10
51327;DHT22;37412;52.836;6.362;2023-06-14T03:18:51;15.00;84.10
51327;DHT22;37412;52.836;6.362;2023-06-14T03:21:37;14.90;84.40
51327;DHT22;37412;52.836;6.362;2023-06-14T03:24:24;14.90;84.80
51327;DHT22;37412;52.836;6.362;2023-06-14T03:27:12;14.90;84.60
51327;DHT22;37412;52.836;6.362;2023-06-14T03:29:59;15.40;85.10
51327;DHT22;37412;52.836;6.362;2023-06-14T03:32:46;14.80;84.90
51327;DHT22;37412;52.836;6.362;2023-06-14T03:35:35;14.90;85.00
51327;DHT22;37412;52.836;6.362;2023-06-14T03:38:21;15.10;85.40
51327;DHT22;37412;52.836;6.362;2023-06-14T03:41:07;14.80;85.40
51327;DHT22;37412;52.836;6.362;2023-06-14T03:43:53;14.90;85.60
51327;DHT22;37412;52.836;6.362;2023-06-14T03:46:38;14.80;85.70
51327;DHT22;37412;52.836;6.362;2023-06-14T03:49:24;14.80;85.80
51327;DHT22;37412;52.836;6.362;2023-06-14T03:52:11;14.80;86.10
51327;DHT22;37412;52.836;6.362;2023-06-14T03:54:57;14.80;85.80
51327;DHT22;37412;52.836;6.362;2023-06-14T03:57:45;14.80;86.10
51327;DHT22;37412;52.836;6.362;2023-06-14T04:00:31;14.80;86.30
51327;DHT22;37412;52.836;6.362;2023-06-14T04:03:17;14.80;86.20
51327;DHT22;37412;52.836;6.362;2023-06-14T04:06:05;14.80;86.70
51327;DHT22;37412;52.836;6.362;2023-06-14T04:08:51;14.80;87.00
51327;DHT22;37412;52.836;6.362;2023-06-14T04:11:38;14.90;87.10
51327;DHT22;37412;52.836;6.362;2023-06-14T04:14:23;14.90;87.20
51327;DHT22;37412;52.836;6.362;2023-06-14T04:17:09;14.90;87.50
51327;DHT22;37412;52.836;6.362;2023-06-14T04:19:56;15.00;87.20
51327;DHT22;37412;52.836;6.362;2023-06-14T04:22:45;15.00;87.40
51327;DHT22;37412;52.836;6.362;2023-06-14T04:25:31;15.00;87.50
51327;DHT22;37412;52.836;6.362;2023-06-14T04:28:17;15.00;88.10
51327;DHT22;37412;52.836;6.362;2023-06-14T04:31:05;15.10;88.40
51327;DHT22;37412;52.836;6.362;2023-06-14T04:33:51;15.10;88.20
51327;DHT22;37412;52.836;6.362;2023-06-14T04:36:39;15.10;88.20
51327;DHT22;37412;52.836;6.362;2023-06-14T04:39:28;15.10;89.20
51327;DHT22;37412;52.836;6.362;2023-06-14T04:42:14;15.20;88.40
51327;DHT22;37412;52.836;6.362;2023-06-14T04:45:00;15.20;88.60
51327;DHT22;37412;52.836;6.362;2023-06-14T04:47:46;15.30;88.90
51327;DHT22;37412;52.836;6.362;2023-06-14T04:50:32;15.40;89.20
51327;DHT22;37412;52.836;6.362;2023-06-14T04:53:20;15.40;88.60
51327;DHT22;37412;52.836;6.362;2023-06-14T04:56:08;15.50;88.80
51327;DHT22;37412;52.836;6.362;2023-06-14T04:58:55;15.50;88.70
51327;DHT22;37412;52.836;6.362;2023-06-14T05:01:42;15.60;89.40
51327;DHT22;37412;52.836;6.362;2023-06-14T05:04:33;15.80;89.20
51327;DHT22;37412;52.836;6.362;2023-06-14T05:07:22;15.70;88.70
51327;DHT22;37412;52.836;6.362;2023-06-14T05:10:09;15.80;88.70
51327;DHT22;37412;52.836;6.362;2023-06-14T05:12:56;15.90;88.80
51327;DHT22;37412;52.836;6.362;2023-06-14T05:15:45;16.00;89.10
51327;DHT22;37412;52.836;6.362;2023-06-14T05:18:31;16.00;88.60
51327;DHT22;37412;52.836;6.362;2023-06-14T05:21:17;16.10;88.80
51327;DHT22;37412;52.836;6.362;2023-06-14T05:24:04;16.20;88.30
51327;DHT22;37412;52.836;6.362;2023-06-14T05:26:50;16.30;88.60
51327;DHT22;37412;52.836;6.362;2023-06-14T05:29:36;16.40;88.30
51327;DHT22;37412;52.836;6.362;2023-06-14T05:32:22;16.40;87.60
51327;DHT22;37412;52.836;6.362;2023-06-14T05:35:08;16.50;87.10
51327;DHT22;37412;52.836;6.362;2023-06-14T05:37:54;16.60;86.00
51327;DHT22;37412;52.836;6.362;2023-06-14T05:40:40;16.60;85.90
51327;DHT22;37412;52.836;6.362;2023-06-14T05:43:26;16.70;86.60
51327;DHT22;37412;52.836;6.362;2023-06-14T05:46:12;16.80;86.30
51327;DHT22;37412;52.836;6.362;2023-06-14T05:48:58;16.90;86.80
51327;DHT22;37412;52.836;6.362;2023-06-14T05:51:44;17.00;86.00
51327;DHT22;37412;52.836;6.362;2023-06-14T05:54:34;17.00;85.90
51327;DHT22;37412;52.836;6.362;2023-06-14T05:57:20;17.10;85.90
51327;DHT22;37412;52.836;6.362;2023-06-14T06:00:07;17.30;85.30
51327;DHT22;37412;52.836;6.362;2023-06-14T06:02:57;17.30;85.10
51327;DHT22;37412;52.836;6.362;2023-06-14T06:05:43;17.70;84.70
51327;DHT22;37412;52.836;6.362;2023-06-14T06:08:29;17.30;84.60
51327;DHT22;37412;52.836;6.362;2023-06-14T06:11:17;17.40;84.60
51327;DHT22;37412;52.836;6.362;2023-06-14T06:14:02;17.50;84.20
51327;DHT22;37412;52.836;6.362;2023-06-14T06:16:48;17.60;83.80
51327;DHT22;37412;52.836;6.362;2023-06-14T06:19:34;17.70;83.70
51327;DHT22;37412;52.836;6.362;2023-06-14T06:22:20;17.80;83.60
51327;DHT22;37412;52.836;6.362;2023-06-14T06:25:07;17.90;83.70
51327;DHT22;37412;52.836;6.362;2023-06-14T06:27:54;18.00;83.10
51327;DHT22;37412;52.836;6.362;2023-06-14T06:30:42;18.10;82.70
51327;DHT22;37412;52.836;6.362;2023-06-14T06:33:28;18.30;82.70
51327;DHT22;37412;52.836;6.362;2023-06-14T06:36:14;18.30;82.20
51327;DHT22;37412;52.836;6.362;2023-06-14T06:39:00;18.40;81.70
51327;DHT22;37412;52.836;6.362;2023-06-14T06:41:52;18.60;82.10
51327;DHT22;37412;52.836;6.362;2023-06-14T06:44:38;18.80;81.30
51327;DHT22;37412;52.836;6.362;2023-06-14T06:47:24;18.90;80.50
51327;DHT22;37412;52.836;6.362;2023-06-14T06:50:10;19.00;80.50
51327;DHT22;37412;52.836;6.362;2023-06-14T06:52:56;19.10;80.30
51327;DHT22;37412;52.836;6.362;2023-06-14T06:55:43;19.30;80.50
51327;DHT22;37412;52.836;6.362;2023-06-14T06:58:29;19.40;79.60
51327;DHT22;37412;52.836;6.362;2023-06-14T07:01:16;19.60;79.30
51327;DHT22;37412;52.836;6.362;2023-06-14T07:04:02;19.70;78.90
51327;DHT22;37412;52.836;6.362;2023-06-14T07:06:49;19.90;78.00
51327;DHT22;37412;52.836;6.362;2023-06-14T07:09:35;20.30;77.90
51327;DHT22;37412;52.836;6.362;2023-06-14T07:12:21;20.10;78.30
51327;DHT22;37412;52.836;6.362;2023-06-14T07:15:07;20.30;77.90
51327;DHT22;37412;52.836;6.362;2023-06-14T07:17:54;20.50;78.30
51327;DHT22;37412;52.836;6.362;2023-06-14T07:20:43;20.80;77.50
51327;DHT22;37412;52.836;6.362;2023-06-14T07:23:29;20.90;76.70
51327;DHT22;37412;52.836;6.362;2023-06-14T07:26:15;21.00;76.50
51327;DHT22;37412;52.836;6.362;2023-06-14T07:29:02;21.10;76.80
51327;DHT22;37412;52.836;6.362;2023-06-14T07:31:48;21.30;76.70
51327;DHT22;37412;52.836;6.362;2023-06-14T07:34:34;21.50;75.50
51327;DHT22;37412;52.836;6.362;2023-06-14T07:37:21;21.70;75.70
51327;DHT22;37412;52.836;6.362;2023-06-14T07:40:07;21.90;75.50
51327;DHT22;37412;52.836;6.362;2023-06-14T07:42:53;22.00;74.50
51327;DHT22;37412;52.836;6.362;2023-06-14T07:45:41;22.20;74.20
51327;DHT22;37412;52.836;6.362;2023-06-14T07:48:28;23.00;75.50
51327;DHT22;37412;52.836;6.362;2023-06-14T07:51:20;22.40;73.60
51327;DHT22;37412;52.836;6.362;2023-06-14T07:54:07;22.50;72.90
51327;DHT22;37412;52.836;6.362;2023-06-14T07:56:54;22.50;73.20
51327;DHT22;37412;52.836;6.362;2023-06-14T07:59:41;22.70;75.10
51327;DHT22;37412;52.836;6.362;2023-06-14T08:02:27;22.90;72.80
51327;DHT22;37412;52.836;6.362;2023-06-14T08:05:13;23.10;72.90
51327;DHT22;37412;52.836;6.362;2023-06-14T08:07:59;23.20;72.40
51327;DHT22;37412;52.836;6.362;2023-06-14T08:10:45;23.40;71.90
51327;DHT22;37412;52.836;6.362;2023-06-14T08:13:31;23.40;71.20
51327;DHT22;37412;52.836;6.362;2023-06-14T08:16:17;23.50;70.70
51327;DHT22;37412;52.836;6.362;2023-06-14T08:19:03;23.60;70.80
51327;DHT22;37412;52.836;6.362;2023-06-14T08:21:49;23.80;71.70
51327;DHT22;37412;52.836;6.362;2023-06-14T08:24:36;23.80;69.00
51327;DHT22;37412;52.836;6.362;2023-06-14T08:27:25;24.00;69.80
51327;DHT22;37412;52.836;6.362;2023-06-14T08:30:11;23.90;69.40
51327;DHT22;37412;52.836;6.362;2023-06-14T08:32:59;24.00;69.30
51327;DHT22;37412;52.836;6.362;2023-06-14T08:35:45;24.30;70.00
51327;DHT22;37412;52.836;6.362;2023-06-14T08:38:32;24.50;69.60
51327;DHT22;37412;52.836;6.362;2023-06-14T08:41:22;24.60;69.60
51327;DHT22;37412;52.836;6.362;2023-06-14T08:44:09;24.70;68.40
51327;DHT22;37412;52.836;6.362;2023-06-14T08:46:59;24.70;67.80
51327;DHT22;37412;52.836;6.362;2023-06-14T08:49:46;24.90;70.20
51327;DHT22;37412;52.836;6.362;2023-06-14T08:52:37;25.20;67.70
51327;DHT22;37412;52.836;6.362;2023-06-14T08:55:27;25.40;67.40
51327;DHT22;37412;52.836;6.362;2023-06-14T08:58:13;25.20;66.00
51327;DHT22;37412;52.836;6.362;2023-06-14T09:01:01;25.40;67.70
51327;DHT22;37412;52.836;6.362;2023-06-14T09:03:51;25.40;65.60
51327;DHT22;37412;52.836;6.362;2023-06-14T09:06:40;25.50;66.70
51327;DHT22;37412;52.836;6.362;2023-06-14T09:09:29;25.70;65.90
51327;DHT22;37412;52.836;6.362;2023-06-14T09:12:17;25.90;66.00
51327;DHT22;37412;52.836;6.362;2023-06-14T09:15:04;25.80;63.70
51327;DHT22;37412;52.836;6.362;2023-06-14T09:17:53;25.80;66.30
51327;DHT22;37412;52.836;6.362;2023-06-14T09:20:40;25.80;65.70
51327;DHT22;37412;52.836;6.362;2023-06-14T09:23:27;26.10;64.40
51327;DHT22;37412;52.836;6.362;2023-06-14T09:26:18;26.20;65.70
51327;DHT22;37412;52.836;6.362;2023-06-14T09:29:09;26.30;65.70
51327;DHT22;37412;52.836;6.362;2023-06-14T09:31:55;26.50;64.40
51327;DHT22;37412;52.836;6.362;2023-06-14T09:34:41;26.60;62.50
51327;DHT22;37412;52.836;6.362;2023-06-14T09:37:31;26.70;63.80
51327;DHT22;37412;52.836;6.362;2023-06-14T09:40:20;26.70;63.60
51327;DHT22;37412;52.836;6.362;2023-06-14T09:43:07;26.80;65.30
51327;DHT22;37412;52.836;6.362;2023-06-14T09:45:56;26.90;64.00
51327;DHT22;37412;52.836;6.362;2023-06-14T09:48:42;26.90;64.10
51327;DHT22;37412;52.836;6.362;2023-06-14T09:51:28;26.90;62.10
51327;DHT22;37412;52.836;6.362;2023-06-14T09:54:22;26.90;64.00
51327;DHT22;37412;52.836;6.362;2023-06-14T09:57:11;26.90;65.10
51327;DHT22;37412;52.836;6.362;2023-06-14T10:00:01;27.10;64.10
51327;DHT22;37412;52.836;6.362;2023-06-14T10:02:54;27.30;63.90
51327;DHT22;37412;52.836;6.362;2023-06-14T10:05:45;27.20;65.00
51327;DHT22;37412;52.836;6.362;2023-06-14T10:08:32;27.40;65.90
51327;DHT22;37412;52.836;6.362;2023-06-14T10:11:23;27.50;62.80
51327;DHT22;37412;52.836;6.362;2023-06-14T10:14:10;27.40;63.90
51327;DHT22;37412;52.836;6.362;2023-06-14T10:17:04;27.40;62.10
51327;DHT22;37412;52.836;6.362;2023-06-14T10:19:58;27.20;61.10
51327;DHT22;37412;52.836;6.362;2023-06-14T10:22:56;27.00;62.80
51327;DHT22;37412;52.836;6.362;2023-06-14T10:25:44;26.90;62.70
51327;DHT22;37412;52.836;6.362;2023-06-14T10:28:30;26.90;62.60
51327;DHT22;37412;52.836;6.362;2023-06-14T10:31:17;26.80;62.20
51327;DHT22;37412;52.836;6.362;2023-06-14T10:34:03;26.70;63.00
51327;DHT22;37412;52.836;6.362;2023-06-14T10:37:11;26.60;63.20
51327;DHT22;37412;52.836;6.362;2023-06-14T10:39:57;26.70;61.40
51327;DHT22;37412;52.836;6.362;2023-06-14T10:42:50;26.80;63.20
51327;DHT22;37412;52.836;6.362;2023-06-14T10:45:36;26.70;63.70
51327;DHT22;37412;52.836;6.362;2023-06-14T10:48:30;26.70;62.50
51327;DHT22;37412;52.836;6.362;2023-06-14T10:51:41;26.70;62.50
51327;DHT22;37412;52.836;6.362;2023-06-14T10:54:32;26.70;62.10
51327;DHT22;37412;52.836;6.362;2023-06-14T10:57:17;26.60;61.60
51327;DHT22;37412;52.836;6.362;2023-06-14T11:00:03;26.30;60.60
51327;DHT22;37412;52.836;6.362;2023-06-14T11:05:56;26.10;61.60
51327;DHT22;37412;52.836;6.362;2023-06-14T11:11:37;26.30;60.90
51327;DHT22;37412;52.836;6.362;2023-06-14T11:14:24;26.20;61.80
51327;DHT22;37412;52.836;6.362;2023-06-14T11:17:11;26.30;62.10
51327;DHT22;37412;52.836;6.362;2023-06-14T11:20:09;26.40;62.40
51327;DHT22;37412;52.836;6.362;2023-06-14T11:22:56;26.40;61.40
51327;DHT22;37412;52.836;6.362;2023-06-14T11:25:42;26.50;62.00
51327;DHT22;37412;52.836;6.362;2023-06-14T11:28:35;26.60;63.10
51327;DHT22;37412;52.836;6.362;2023-06-14T11:31:25;26.70;60.70
51327;DHT22;37412;52.836;6.362;2023-06-14T11:34:12;26.70;60.80
51327;DHT22;37412;52.836;6.362;2023-06-14T11:36:58;26.70;61.10
51327;DHT22;37412;52.836;6.362;2023-06-14T11:39:44;26.60;60.00
51327;DHT22;37412;52.836;6.362;2023-06-14T11:42:31;26.60;59.50
51327;DHT22;37412;52.836;6.362;2023-06-14T11:45:17;26.60;60.10
51327;DHT22;37412;52.836;6.362;2023-06-14T11:48:06;26.70;62.10
51327;DHT22;37412;52.836;6.362;2023-06-14T11:50:52;26.90;61.20
51327;DHT22;37412;52.836;6.362;2023-06-14T11:53:38;27.10;61.40
51327;DHT22;37412;52.836;6.362;2023-06-14T11:56:24;27.10;61.50
51327;DHT22;37412;52.836;6.362;2023-06-14T11:59:11;27.20;60.40
51327;DHT22;37412;52.836;6.362;2023-06-14T12:01:58;27.10;60.30
51327;DHT22;37412;52.836;6.362;2023-06-14T12:04:49;26.80;59.70
51327;DHT22;37412;52.836;6.362;2023-06-14T12:07:36;26.90;61.00
51327;DHT22;37412;52.836;6.362;2023-06-14T12:10:23;26.90;61.20
51327;DHT22;37412;52.836;6.362;2023-06-14T12:13:09;27.00;61.30
51327;DHT22;37412;52.836;6.362;2023-06-14T12:15:55;26.90;59.20
51327;DHT22;37412;52.836;6.362;2023-06-14T12:18:41;26.70;59.20
51327;DHT22;37412;52.836;6.362;2023-06-14T12:21:29;26.80;61.10
51327;DHT22;37412;52.836;6.362;2023-06-14T12:24:14;26.90;59.90
51327;DHT22;37412;52.836;6.362;2023-06-14T12:27:00;27.00;59.50
51327;DHT22;37412;52.836;6.362;2023-06-14T12:29:58;27.20;61.10
51327;DHT22;37412;52.836;6.362;2023-06-14T12:32:44;27.40;61.00
51327;DHT22;37412;52.836;6.362;2023-06-14T12:35:31;27.50;58.70
51327;DHT22;37412;52.836;6.362;2023-06-14T12:38:17;27.40;58.90
51327;DHT22;37412;52.836;6.362;2023-06-14T12:41:03;27.20;58.40
51327;DHT22;37412;52.836;6.362;2023-06-14T12:43:49;27.10;60.00
51327;DHT22;37412;52.836;6.362;2023-06-14T12:46:35;27.10;61.70
51327;DHT22;37412;52.836;6.362;2023-06-14T12:49:20;27.30;60.40
51327;DHT22;37412;52.836;6.362;2023-06-14T12:52:09;27.40;60.20
51327;DHT22;37412;52.836;6.362;2023-06-14T12:54:55;27.50;59.80
51327;DHT22;37412;52.836;6.362;2023-06-14T12:57:41;27.30;59.50
51327;DHT22;37412;52.836;6.362;2023-06-14T13:00:27;27.40;60.80
51327;DHT22;37412;52.836;6.362;2023-06-14T13:03:13;27.60;60.70
51327;DHT22;37412;52.836;6.362;2023-06-14T13:05:59;27.70;59.10
51327;DHT22;37412;52.836;6.362;2023-06-14T13:08:46;27.60;58.60
51327;DHT22;37412;52.836;6.362;2023-06-14T13:11:33;27.40;58.90
51327;DHT22;37412;52.836;6.362;2023-06-14T13:14:20;27.70;61.20
51327;DHT22;37412;52.836;6.362;2023-06-14T13:17:06;27.80;59.40
51327;DHT22;37412;52.836;6.362;2023-06-14T13:19:52;27.90;58.40
51327;DHT22;37412;52.836;6.362;2023-06-14T13:22:38;27.70;59.30
51327;DHT22;37412;52.836;6.362;2023-06-14T13:25:28;27.80;58.20
51327;DHT22;37412;52.836;6.362;2023-06-14T13:28:13;27.80;59.20
51327;DHT22;37412;52.836;6.362;2023-06-14T13:30:59;27.80;59.10
51327;DHT22;37412;52.836;6.362;2023-06-14T13:33:46;27.70;59.20
51327;DHT22;37412;52.836;6.362;2023-06-14T13:36:32;27.90;57.90
51327;DHT22;37412;52.836;6.362;2023-06-14T13:39:18;27.80;58.70
51327;DHT22;37412;52.836;6.362;2023-06-14T13:42:05;27.70;59.00
51327;DHT22;37412;52.836;6.362;2023-06-14T13:45:03;27.80;59.90
51327;DHT22;37412;52.836;6.362;2023-06-14T13:47:49;28.10;59.90
51327;DHT22;37412;52.836;6.362;2023-06-14T13:50:44;28.30;59.40
51327;DHT22;37412;52.836;6.362;2023-06-14T13:53:31;28.40;59.20
51327;DHT22;37412;52.836;6.362;2023-06-14T13:56:17;28.20;58.50
51327;DHT22;37412;52.836;6.362;2023-06-14T13:59:06;28.30;59.10
51327;DHT22;37412;52.836;6.362;2023-06-14T14:01:52;28.20;58.50
51327;DHT22;37412;52.836;6.362;2023-06-14T14:04:40;28.30;58.30
51327;DHT22;37412;52.836;6.362;2023-06-14T14:07:28;28.10;57.60
51327;DHT22;37412;52.836;6.362;2023-06-14T14:10:15;28.10;58.20
51327;DHT22;37412;52.836;6.362;2023-06-14T14:13:01;28.10;59.60
51327;DHT22;37412;52.836;6.362;2023-06-14T14:16:06;28.20;59.80
51327;DHT22;37412;52.836;6.362;2023-06-14T14:18:51;28.30;59.10
51327;DHT22;37412;52.836;6.362;2023-06-14T14:21:37;28.30;58.30
51327;DHT22;37412;52.836;6.362;2023-06-14T14:24:23;28.30;58.70
51327;DHT22;37412;52.836;6.362;2023-06-14T14:27:09;28.20;58.40
51327;DHT22;37412;52.836;6.362;2023-06-14T14:29:56;28.10;58.80
51327;DHT22;37412;52.836;6.362;2023-06-14T14:32:42;28.10;58.20
51327;DHT22;37412;52.836;6.362;2023-06-14T14:35:29;28.10;59.00
51327;DHT22;37412;52.836;6.362;2023-06-14T14:38:16;28.10;58.30
51327;DHT22;37412;52.836;6.362;2023-06-14T14:41:02;28.00;58.50
51327;DHT22;37412;52.836;6.362;2023-06-14T14:43:48;28.10;58.50
51327;DHT22;37412;52.836;6.362;2023-06-14T14:46:34;28.00;57.70
51327;DHT22;37412;52.836;6.362;2023-06-14T14:49:21;28.00;58.50
51327;DHT22;37412;52.836;6.362;2023-06-14T14:52:11;27.90;58.60
51327;DHT22;37412;52.836;6.362;2023-06-14T14:55:00;28.00;59.30
51327;DHT22;37412;52.836;6.362;2023-06-14T14:58:06;28.00;58.20
51327;DHT22;37412;52.836;6.362;2023-06-14T15:00:52;28.10;58.20
51327;DHT22;37412;52.836;6.362;2023-06-14T15:04:03;28.10;58.40
51327;DHT22;37412;52.836;6.362;2023-06-14T15:06:49;28.20;58.10
51327;DHT22;37412;52.836;6.362;2023-06-14T15:09:36;28.00;57.80
51327;DHT22;37412;52.836;6.362;2023-06-14T15:12:40;27.60;57.70
51327;DHT22;37412;52.836;6.362;2023-06-14T15:15:46;27.30;58.30
51327;DHT22;37412;52.836;6.362;2023-06-14T15:18:32;27.20;58.30
51327;DHT22;37412;52.836;6.362;2023-06-14T15:21:21;27.20;58.60
51327;DHT22;37412;52.836;6.362;2023-06-14T15:24:09;27.30;58.70
51327;DHT22;37412;52.836;6.362;2023-06-14T15:26:58;27.50;58.70
51327;DHT22;37412;52.836;6.362;2023-06-14T15:29:44;27.50;59.00
51327;DHT22;37412;52.836;6.362;2023-06-14T15:32:30;27.50;59.50
51327;DHT22;37412;52.836;6.362;2023-06-14T15:35:17;27.60;58.90
51327;DHT22;37412;52.836;6.362;2023-06-14T15:38:03;27.60;58.50
51327;DHT22;37412;52.836;6.362;2023-06-14T15:40:49;27.60;58.80
51327;DHT22;37412;52.836;6.362;2023-06-14T15:43:35;27.60;59.50
51327;DHT22;37412;52.836;6.362;2023-06-14T15:46:21;27.70;58.70
51327;DHT22;37412;52.836;6.362;2023-06-14T15:49:08;27.60;58.70
51327;DHT22;37412;52.836;6.362;2023-06-14T15:51:54;27.50;58.70
51327;DHT22;37412;52.836;6.362;2023-06-14T15:54:40;27.30;58.60
51327;DHT22;37412;52.836;6.362;2023-06-14T15:57:29;27.20;59.60
51327;DHT22;37412;52.836;6.362;2023-06-14T16:00:15;27.20;59.50
51327;DHT22;37412;52.836;6.362;2023-06-14T16:03:01;27.40;58.70
51327;DHT22;37412;52.836;6.362;2023-06-14T16:05:47;27.40;57.80
51327;DHT22;37412;52.836;6.362;2023-06-14T16:08:33;27.40;58.00
51327;DHT22;37412;52.836;6.362;2023-06-14T16:11:19;27.40;58.40
51327;DHT22;37412;52.836;6.362;2023-06-14T16:14:04;27.30;57.40
51327;DHT22;37412;52.836;6.362;2023-06-14T16:16:50;27.20;58.00
51327;DHT22;37412;52.836;6.362;2023-06-14T16:19:36;27.20;58.80
51327;DHT22;37412;52.836;6.362;2023-06-14T16:22:22;27.30;59.40
51327;DHT22;37412;52.836;6.362;2023-06-14T16:25:08;27.30;59.20
51327;DHT22;37412;52.836;6.362;2023-06-14T16:28:00;27.40;58.90
51327;DHT22;37412;52.836;6.362;2023-06-14T16:30:53;27.40;57.70
51327;DHT22;37412;52.836;6.362;2023-06-14T16:33:48;27.20;57.60
51327;DHT22;37412;52.836;6.362;2023-06-14T16:36:39;27.00;57.70
51327;DHT22;37412;52.836;6.362;2023-06-14T16:39:25;27.00;58.40
51327;DHT22;37412;52.836;6.362;2023-06-14T16:42:11;26.80;58.20
51327;DHT22;37412;52.836;6.362;2023-06-14T16:44:57;26.70;58.90
51327;DHT22;37412;52.836;6.362;2023-06-14T16:47:43;26.70;58.30
51327;DHT22;37412;52.836;6.362;2023-06-14T16:50:29;26.70;58.40
51327;DHT22;37412;52.836;6.362;2023-06-14T16:53:15;26.60;58.20
51327;DHT22;37412;52.836;6.362;2023-06-14T16:56:02;26.60;58.70
51327;DHT22;37412;52.836;6.362;2023-06-14T16:58:48;26.40;58.30
51327;DHT22;37412;52.836;6.362;2023-06-14T17:01:35;26.30;59.20
51327;DHT22;37412;52.836;6.362;2023-06-14T17:04:24;26.20;59.90
51327;DHT22;37412;52.836;6.362;2023-06-14T17:07:16;26.00;60.70
51327;DHT22;37412;52.836;6.362;2023-06-14T17:10:05;26.00;59.20
51327;DHT22;37412;52.836;6.362;2023-06-14T17:13:02;26.00;58.80
51327;DHT22;37412;52.836;6.362;2023-06-14T17:15:51;26.00;59.90
51327;DHT22;37412;52.836;6.362;2023-06-14T17:18:40;25.90;59.10
51327;DHT22;37412;52.836;6.362;2023-06-14T17:21:27;26.00;59.40
51327;DHT22;37412;52.836;6.362;2023-06-14T17:24:16;25.90;59.10
51327;DHT22;37412;52.836;6.362;2023-06-14T17:27:02;25.80;59.70
51327;DHT22;37412;52.836;6.362;2023-06-14T17:29:47;25.80;60.30
51327;DHT22;37412;52.836;6.362;2023-06-14T17:32:34;25.80;59.00
51327;DHT22;37412;52.836;6.362;2023-06-14T17:35:21;25.80;59.50
51327;DHT22;37412;52.836;6.362;2023-06-14T17:38:07;25.70;59.50
51327;DHT22;37412;52.836;6.362;2023-06-14T17:40:56;25.80;59.80
51327;DHT22;37412;52.836;6.362;2023-06-14T17:43:47;25.80;60.30